sensor_id;sensor_type;location;lat;lon;timestamp;temperature;humidity
37998;DHT22;24079;51.824;4.682;2023-08-07T00:01:07;15.00;99.90
37998;DHT22;24079;51.824;4.682;2023-08-07T00:03:34;15.00;99.90
37998;DHT22;24079;51.824;4.682;2023-08-07T00:06:01;15.00;99.90
37998;DHT22;24079;51.824;4.682;2023-08-07T00:08:27;15.10;99.90
37998;DHT22;24079;51.824;4.682;2023-08-07T00:11:03;15.10;99.90
37998;DHT22;24079;51.824;4.682;2023-08-07T00:13:29;15.10;99.90
37998;DHT22;24079;51.824;4.682;2023-08-07T00:15:55;15.20;99.90
37998;DHT22;24079;51.824;4.682;2023-08-07T00:18:21;15.20;99.90
37998;DHT22;24079;51.824;4.682;2023-08-07T00:20:47;15.20;99.90
37998;DHT22;24079;51.824;4.682;2023-08-07T00:23:13;15.30;99.90
37998;DHT22;24079;51.824;4.682;2023-08-07T00:25:39;15.40;99.90
37998;DHT22;24079;51.824;4.682;2023-08-07T00:28:06;15.40;99.90
37998;DHT22;24079;51.824;4.682;2023-08-07T00:30:32;15.40;99.90
37998;DHT22;24079;51.824;4.682;2023-08-07T00:32:58;15.50;99.90
37998;DHT22;24079;51.824;4.682;2023-08-07T00:35:24;15.50;99.90
37998;DHT22;24079;51.824;4.682;2023-08-07T00:37:50;15.50;99.90
37998;DHT22;24079;51.824;4.682;2023-08-07T00:40:17;15.50;99.90
37998;DHT22;24079;51.824;4.682;2023-08-07T00:42:44;15.50;99.90
37998;DHT22;24079;51.824;4.682;2023-08-07T00:45:10;15.30;99.90
37998;DHT22;24079;51.824;4.682;2023-08-07T00:47:36;15.00;99.90
37998;DHT22;24079;51.824;4.682;2023-08-07T00:50:04;14.90;99.90
37998;DHT22;24079;51.824;4.682;2023-08-07T00:52:31;14.70;99.90
37998;DHT22;24079;51.824;4.682;2023-08-07T00:54:58;14.60;99.90
37998;DHT22;24079;51.824;4.682;2023-08-07T00:57:24;14.50;99.90
37998;DHT22;24079;51.824;4.682;2023-08-07T00:59:52;14.50;99.90
37998;DHT22;24079;51.824;4.682;2023-08-07T01:02:18;14.50;99.90
37998;DHT22;24079;51.824;4.682;2023-08-07T01:04:44;14.50;99.90
37998;DHT22;24079;51.824;4.682;2023-08-07T01:07:10;14.50;99.90
37998;DHT22;24079;51.824;4.682;2023-08-07T01:09:37;14.40;99.90
37998;DHT22;24079;51.824;4.682;2023-08-07T01:12:16;14.40;99.90
37998;DHT22;24079;51.824;4.682;2023-08-07T01:14:55;14.50;99.90
37998;DHT22;24079;51.824;4.682;2023-08-07T01:17:24;14.50;99.90
37998;DHT22;24079;51.824;4.682;2023-08-07T01:19:52;14.50;99.90
37998;DHT22;24079;51.824;4.682;2023-08-07T01:22:21;14.50;99.90
37998;DHT22;24079;51.824;4.682;2023-08-07T01:24:49;14.60;99.90
37998;DHT22;24079;51.824;4.682;2023-08-07T01:29:51;14.70;99.90
37998;DHT22;24079;51.824;4.682;2023-08-07T01:32:30;14.70;99.90
37998;DHT22;24079;51.824;4.682;2023-08-07T01:35:02;14.70;99.90
37998;DHT22;24079;51.824;4.682;2023-08-07T01:37:35;14.80;99.90
37998;DHT22;24079;51.824;4.682;2023-08-07T01:40:03;14.90;99.90
37998;DHT22;24079;51.824;4.682;2023-08-07T01:42:29;15.00;99.90
37998;DHT22;24079;51.824;4.682;2023-08-07T01:44:56;15.10;99.90
37998;DHT22;24079;51.824;4.682;2023-08-07T01:47:22;15.10;99.90
37998;DHT22;24079;51.824;4.682;2023-08-07T01:49:48;15.20;99.90
37998;DHT22;24079;51.824;4.682;2023-08-07T01:52:14;15.30;99.90
37998;DHT22;24079;51.824;4.682;2023-08-07T01:54:41;15.30;99.90
37998;DHT22;24079;51.824;4.682;2023-08-07T01:57:07;15.30;99.90
37998;DHT22;24079;51.824;4.682;2023-08-07T01:59:33;15.40;99.90
37998;DHT22;24079;51.824;4.682;2023-08-07T02:01:59;15.40;99.90
37998;DHT22;24079;51.824;4.682;2023-08-07T02:04:25;15.40;99.90
37998;DHT22;24079;51.824;4.682;2023-08-07T02:06:51;15.40;99.90
37998;DHT22;24079;51.824;4.682;2023-08-07T02:09:17;15.40;99.90
37998;DHT22;24079;51.824;4.682;2023-08-07T02:11:43;15.40;99.90
37998;DHT22;24079;51.824;4.682;2023-08-07T02:14:10;15.40;99.90
37998;DHT22;24079;51.824;4.682;2023-08-07T02:16:36;15.40;99.90
37998;DHT22;24079;51.824;4.682;2023-08-07T02:19:02;15.40;99.90
37998;DHT22;24079;51.824;4.682;2023-08-07T02:21:28;15.40;99.90
37998;DHT22;24079;51.824;4.682;2023-08-07T02:23:54;15.50;99.90
37998;DHT22;24079;51.824;4.682;2023-08-07T02:26:20;15.50;99.90
37998;DHT22;24079;51.824;4.682;2023-08-07T02:28:46;15.50;99.90
37998;DHT22;24079;51.824;4.682;2023-08-07T02:31:12;15.50;99.90
37998;DHT22;24079;51.824;4.682;2023-08-07T02:33:39;15.50;99.90
37998;DHT22;24079;51.824;4.682;2023-08-07T02:36:05;15.50;99.90
37998;DHT22;24079;51.824;4.682;2023-08-07T02:38:31;15.50;99.90
37998;DHT22;24079;51.824;4.682;2023-08-07T02:40:57;15.50;99.90
37998;DHT22;24079;51.824;4.682;2023-08-07T02:43:23;15.60;99.90
37998;DHT22;24079;51.824;4.682;2023-08-07T02:45:49;15.50;99.90
37998;DHT22;24079;51.824;4.682;2023-08-07T02:48:15;15.50;99.90
37998;DHT22;24079;51.824;4.682;2023-08-07T02:50:43;15.50;99.90
37998;DHT22;24079;51.824;4.682;2023-08-07T02:53:10;15.50;99.90
37998;DHT22;24079;51.824;4.682;2023-08-07T02:55:36;15.50;99.90
37998;DHT22;24079;51.824;4.682;2023-08-07T02:58:02;15.50;99.90
37998;DHT22;24079;51.824;4.682;2023-08-07T03:00:28;15.50;99.90
37998;DHT22;24079;51.824;4.682;2023-08-07T03:02:55;15.50;99.90
37998;DHT22;24079;51.824;4.682;2023-08-07T03:05:21;15.50;99.90
37998;DHT22;24079;51.824;4.682;2023-08-07T03:07:47;15.50;99.90
37998;DHT22;24079;51.824;4.682;2023-08-07T03:10:13;15.50;99.90
37998;DHT22;24079;51.824;4.682;2023-08-07T03:12:39;15.50;99.90
37998;DHT22;24079;51.824;4.682;2023-08-07T03:15:05;15.50;99.90
37998;DHT22;24079;51.824;4.682;2023-08-07T03:17:32;15.50;99.90
37998;DHT22;24079;51.824;4.682;2023-08-07T03:19:58;15.40;99.90
37998;DHT22;24079;51.824;4.682;2023-08-07T03:22:24;15.40;99.90
37998;DHT22;24079;51.824;4.682;2023-08-07T03:24:50;15.30;99.90
37998;DHT22;24079;51.824;4.682;2023-08-07T03:27:16;15.10;99.90
37998;DHT22;24079;51.824;4.682;2023-08-07T03:29:42;15.00;99.90
37998;DHT22;24079;51.824;4.682;2023-08-07T03:32:09;14.90;99.90
37998;DHT22;24079;51.824;4.682;2023-08-07T03:34:35;14.90;99.90
37998;DHT22;24079;51.824;4.682;2023-08-07T03:37:01;14.80;99.90
37998;DHT22;24079;51.824;4.682;2023-08-07T03:39:28;14.80;99.90
37998;DHT22;24079;51.824;4.682;2023-08-07T03:41:54;14.80;99.90
37998;DHT22;24079;51.824;4.682;2023-08-07T03:44:20;14.70;99.90
37998;DHT22;24079;51.824;4.682;2023-08-07T03:46:46;14.60;99.90
37998;DHT22;24079;51.824;4.682;2023-08-07T03:49:12;14.60;99.90
37998;DHT22;24079;51.824;4.682;2023-08-07T03:51:38;14.60;99.90
37998;DHT22;24079;51.824;4.682;2023-08-07T03:54:04;14.50;99.90
37998;DHT22;24079;51.824;4.682;2023-08-07T03:56:30;14.50;99.90
37998;DHT22;24079;51.824;4.682;2023-08-07T03:59:05;14.50;99.90
37998;DHT22;24079;51.824;4.682;2023-08-07T04:01:31;14.40;99.90
37998;DHT22;24079;51.824;4.682;2023-08-07T04:07:19;14.40;99.90
37998;DHT22;24079;51.824;4.682;2023-08-07T04:09:45;14.50;99.90
37998;DHT22;24079;51.824;4.682;2023-08-07T04:12:11;14.50;99.90
37998;DHT22;24079;51.824;4.682;2023-08-07T04:14:37;14.50;99.90
37998;DHT22;24079;51.824;4.682;2023-08-07T04:17:04;14.50;99.90
37998;DHT22;24079;51.824;4.682;2023-08-07T04:19:30;14.50;99.90
37998;DHT22;24079;51.824;4.682;2023-08-07T04:21:56;14.50;99.90
37998;DHT22;24079;51.824;4.682;2023-08-07T04:24:22;14.60;99.90
37998;DHT22;24079;51.824;4.682;2023-08-07T04:26:49;14.60;99.90
37998;DHT22;24079;51.824;4.682;2023-08-07T04:29:15;14.60;99.90
37998;DHT22;24079;51.824;4.682;2023-08-07T04:31:41;14.70;99.90
37998;DHT22;24079;51.824;4.682;2023-08-07T04:34:07;14.70;99.90
37998;DHT22;24079;51.824;4.682;2023-08-07T04:36:34;14.70;99.90
37998;DHT22;24079;51.824;4.682;2023-08-07T04:39:00;14.70;99.90
37998;DHT22;24079;51.824;4.682;2023-08-07T04:41:27;14.80;99.90
37998;DHT22;24079;51.824;4.682;2023-08-07T04:43:53;14.80;99.90
37998;DHT22;24079;51.824;4.682;2023-08-07T04:46:19;14.80;99.90
37998;DHT22;24079;51.824;4.682;2023-08-07T04:48:45;14.80;99.90
37998;DHT22;24079;51.824;4.682;2023-08-07T04:51:13;14.90;99.90
37998;DHT22;24079;51.824;4.682;2023-08-07T04:53:39;14.90;99.90
37998;DHT22;24079;51.824;4.682;2023-08-07T04:56:05;14.90;99.90
37998;DHT22;24079;51.824;4.682;2023-08-07T04:58:31;14.90;99.90
37998;DHT22;24079;51.824;4.682;2023-08-07T05:00:58;15.00;99.90
37998;DHT22;24079;51.824;4.682;2023-08-07T05:03:25;15.00;99.90
37998;DHT22;24079;51.824;4.682;2023-08-07T05:06:01;15.00;99.90
37998;DHT22;24079;51.824;4.682;2023-08-07T05:08:27;15.10;99.90
37998;DHT22;24079;51.824;4.682;2023-08-07T05:10:53;15.10;99.90
37998;DHT22;24079;51.824;4.682;2023-08-07T05:13:20;15.10;99.90
37998;DHT22;24079;51.824;4.682;2023-08-07T05:15:49;15.20;99.90
37998;DHT22;24079;51.824;4.682;2023-08-07T05:18:15;15.20;99.90
37998;DHT22;24079;51.824;4.682;2023-08-07T05:20:42;15.20;99.90
37998;DHT22;24079;51.824;4.682;2023-08-07T05:23:08;15.20;99.90
37998;DHT22;24079;51.824;4.682;2023-08-07T05:25:34;15.30;99.90
37998;DHT22;24079;51.824;4.682;2023-08-07T05:28:01;15.40;99.90
37998;DHT22;24079;51.824;4.682;2023-08-07T05:30:27;15.40;99.90
37998;DHT22;24079;51.824;4.682;2023-08-07T05:32:53;15.40;99.90
37998;DHT22;24079;51.824;4.682;2023-08-07T05:35:19;15.40;99.90
37998;DHT22;24079;51.824;4.682;2023-08-07T05:37:45;15.50;99.90
37998;DHT22;24079;51.824;4.682;2023-08-07T05:40:11;15.50;99.90
37998;DHT22;24079;51.824;4.682;2023-08-07T05:42:37;15.50;99.90
37998;DHT22;24079;51.824;4.682;2023-08-07T05:45:04;15.50;99.90
37998;DHT22;24079;51.824;4.682;2023-08-07T05:47:32;15.50;99.90
37998;DHT22;24079;51.824;4.682;2023-08-07T05:49:58;15.50;99.90
37998;DHT22;24079;51.824;4.682;2023-08-07T05:52:24;15.50;99.90
37998;DHT22;24079;51.824;4.682;2023-08-07T05:54:51;15.50;99.90
37998;DHT22;24079;51.824;4.682;2023-08-07T05:57:18;15.60;99.90
37998;DHT22;24079;51.824;4.682;2023-08-07T05:59:44;15.70;99.90
37998;DHT22;24079;51.824;4.682;2023-08-07T06:02:10;15.70;99.90
37998;DHT22;24079;51.824;4.682;2023-08-07T06:04:37;15.70;99.90
37998;DHT22;24079;51.824;4.682;2023-08-07T06:07:05;15.70;99.90
37998;DHT22;24079;51.824;4.682;2023-08-07T06:09:31;15.70;99.90
37998;DHT22;24079;51.824;4.682;2023-08-07T06:11:57;15.70;99.90
37998;DHT22;24079;51.824;4.682;2023-08-07T06:14:23;15.90;99.90
37998;DHT22;24079;51.824;4.682;2023-08-07T06:16:51;15.90;99.90
37998;DHT22;24079;51.824;4.682;2023-08-07T06:19:18;15.90;99.90
37998;DHT22;24079;51.824;4.682;2023-08-07T06:21:46;16.00;99.90
37998;DHT22;24079;51.824;4.682;2023-08-07T06:24:12;15.90;99.90
37998;DHT22;24079;51.824;4.682;2023-08-07T06:26:38;16.00;99.90
37998;DHT22;24079;51.824;4.682;2023-08-07T06:29:04;16.20;99.90
37998;DHT22;24079;51.824;4.682;2023-08-07T06:31:30;16.60;99.90
37998;DHT22;24079;51.824;4.682;2023-08-07T06:33:57;16.90;99.90
37998;DHT22;24079;51.824;4.682;2023-08-07T06:36:25;16.80;99.90
37998;DHT22;24079;51.824;4.682;2023-08-07T06:38:52;16.90;99.90
37998;DHT22;24079;51.824;4.682;2023-08-07T06:41:18;17.00;99.90
37998;DHT22;24079;51.824;4.682;2023-08-07T06:43:45;17.10;99.90
37998;DHT22;24079;51.824;4.682;2023-08-07T06:46:11;16.90;99.90
37998;DHT22;24079;51.824;4.682;2023-08-07T06:48:37;16.80;99.90
37998;DHT22;24079;51.824;4.682;2023-08-07T06:51:03;17.20;99.90
37998;DHT22;24079;51.824;4.682;2023-08-07T06:53:29;17.80;99.90
37998;DHT22;24079;51.824;4.682;2023-08-07T06:55:56;18.10;99.90
37998;DHT22;24079;51.824;4.682;2023-08-07T06:58:22;17.90;99.90
37998;DHT22;24079;51.824;4.682;2023-08-07T07:00:48;17.70;99.90
37998;DHT22;24079;51.824;4.682;2023-08-07T07:03:14;17.60;99.90
37998;DHT22;24079;51.824;4.682;2023-08-07T07:05:41;17.60;99.90
37998;DHT22;24079;51.824;4.682;2023-08-07T07:08:08;17.60;99.90
37998;DHT22;24079;51.824;4.682;2023-08-07T07:10:35;17.50;99.90
37998;DHT22;24079;51.824;4.682;2023-08-07T07:13:01;17.50;99.90
37998;DHT22;24079;51.824;4.682;2023-08-07T07:15:27;17.50;99.90
37998;DHT22;24079;51.824;4.682;2023-08-07T07:17:53;17.70;99.90
37998;DHT22;24079;51.824;4.682;2023-08-07T07:20:19;18.10;99.90
37998;DHT22;24079;51.824;4.682;2023-08-07T07:22:46;18.30;99.90
37998;DHT22;24079;51.824;4.682;2023-08-07T07:25:13;18.50;99.90
37998;DHT22;24079;51.824;4.682;2023-08-07T07:27:39;18.60;99.90
37998;DHT22;24079;51.824;4.682;2023-08-07T07:30:06;18.80;99.90
37998;DHT22;24079;51.824;4.682;2023-08-07T07:32:34;19.10;99.90
37998;DHT22;24079;51.824;4.682;2023-08-07T07:35:00;19.00;99.90
37998;DHT22;24079;51.824;4.682;2023-08-07T07:37:27;19.00;99.90
37998;DHT22;24079;51.824;4.682;2023-08-07T07:39:53;19.20;99.90
37998;DHT22;24079;51.824;4.682;2023-08-07T07:42:19;19.20;99.90
37998;DHT22;24079;51.824;4.682;2023-08-07T07:44:45;19.20;99.90
37998;DHT22;24079;51.824;4.682;2023-08-07T07:47:10;19.20;99.90
37998;DHT22;24079;51.824;4.682;2023-08-07T07:49:36;18.70;99.90
37998;DHT22;24079;51.824;4.682;2023-08-07T07:52:02;18.30;99.90
37998;DHT22;24079;51.824;4.682;2023-08-07T07:54:28;18.10;99.90
37998;DHT22;24079;51.824;4.682;2023-08-07T07:56:55;17.60;99.90
37998;DHT22;24079;51.824;4.682;2023-08-07T07:59:21;17.40;99.90
37998;DHT22;24079;51.824;4.682;2023-08-07T08:01:47;17.80;99.90
37998;DHT22;24079;51.824;4.682;2023-08-07T08:04:13;19.60;99.90
37998;DHT22;24079;51.824;4.682;2023-08-07T08:06:40;20.60;99.90
37998;DHT22;24079;51.824;4.682;2023-08-07T08:09:06;21.50;99.90
37998;DHT22;24079;51.824;4.682;2023-08-07T08:11:35;22.10;99.90
37998;DHT22;24079;51.824;4.682;2023-08-07T08:14:01;22.80;99.90
37998;DHT22;24079;51.824;4.682;2023-08-07T08:16:27;23.30;99.90
37998;DHT22;24079;51.824;4.682;2023-08-07T08:18:53;22.50;99.90
37998;DHT22;24079;51.824;4.682;2023-08-07T08:21:19;22.20;99.90
37998;DHT22;24079;51.824;4.682;2023-08-07T08:23:46;22.60;99.90
37998;DHT22;24079;51.824;4.682;2023-08-07T08:26:11;23.10;99.90
37998;DHT22;24079;51.824;4.682;2023-08-07T08:28:38;22.30;99.90
37998;DHT22;24079;51.824;4.682;2023-08-07T08:31:04;22.30;99.90
37998;DHT22;24079;51.824;4.682;2023-08-07T08:33:30;22.20;99.90
37998;DHT22;24079;51.824;4.682;2023-08-07T08:35:57;22.10;99.90
37998;DHT22;24079;51.824;4.682;2023-08-07T08:38:23;21.60;99.90
37998;DHT22;24079;51.824;4.682;2023-08-07T08:40:51;21.20;99.90
37998;DHT22;24079;51.824;4.682;2023-08-07T08:43:17;21.80;99.90
37998;DHT22;24079;51.824;4.682;2023-08-07T08:45:43;21.80;99.90
37998;DHT22;24079;51.824;4.682;2023-08-07T08:48:12;21.40;99.90
37998;DHT22;24079;51.824;4.682;2023-08-07T08:50:41;21.70;99.90
37998;DHT22;24079;51.824;4.682;2023-08-07T08:53:08;21.50;99.90
37998;DHT22;24079;51.824;4.682;2023-08-07T08:55:35;21.00;99.90
37998;DHT22;24079;51.824;4.682;2023-08-07T08:58:01;20.70;99.90
37998;DHT22;24079;51.824;4.682;2023-08-07T09:00:27;20.50;99.90
37998;DHT22;24079;51.824;4.682;2023-08-07T09:02:55;21.00;99.90
37998;DHT22;24079;51.824;4.682;2023-08-07T09:05:20;21.00;99.90
37998;DHT22;24079;51.824;4.682;2023-08-07T09:07:50;20.90;99.90
37998;DHT22;24079;51.824;4.682;2023-08-07T09:10:16;21.20;99.90
37998;DHT22;24079;51.824;4.682;2023-08-07T09:13:01;21.30;99.90
37998;DHT22;24079;51.824;4.682;2023-08-07T09:15:32;21.10;99.90
37998;DHT22;24079;51.824;4.682;2023-08-07T09:17:58;21.00;99.90
37998;DHT22;24079;51.824;4.682;2023-08-07T09:20:27;20.60;99.90
37998;DHT22;24079;51.824;4.682;2023-08-07T09:22:54;20.30;99.90
37998;DHT22;24079;51.824;4.682;2023-08-07T09:25:33;20.30;99.90
37998;DHT22;24079;51.824;4.682;2023-08-07T09:28:06;20.60;99.90
37998;DHT22;24079;51.824;4.682;2023-08-07T09:30:34;21.10;99.90
37998;DHT22;24079;51.824;4.682;2023-08-07T09:33:01;21.10;99.90
37998;DHT22;24079;51.824;4.682;2023-08-07T09:35:29;21.30;99.90
37998;DHT22;24079;51.824;4.682;2023-08-07T09:37:57;21.40;99.90
37998;DHT22;24079;51.824;4.682;2023-08-07T09:40:23;21.40;99.90
37998;DHT22;24079;51.824;4.682;2023-08-07T09:42:51;21.40;99.90
37998;DHT22;24079;51.824;4.682;2023-08-07T09:45:40;20.60;99.90
37998;DHT22;24079;51.824;4.682;2023-08-07T09:48:06;20.80;99.90
37998;DHT22;24079;51.824;4.682;2023-08-07T09:50:32;20.90;99.90
37998;DHT22;24079;51.824;4.682;2023-08-07T09:52:59;21.10;99.90
37998;DHT22;24079;51.824;4.682;2023-08-07T09:55:25;20.80;99.90
37998;DHT22;24079;51.824;4.682;2023-08-07T09:57:52;20.80;99.90
37998;DHT22;24079;51.824;4.682;2023-08-07T10:00:18;21.10;99.90
37998;DHT22;24079;51.824;4.682;2023-08-07T10:02:49;21.20;99.90
37998;DHT22;24079;51.824;4.682;2023-08-07T10:05:16;21.30;99.90
37998;DHT22;24079;51.824;4.682;2023-08-07T10:07:43;21.60;99.90
37998;DHT22;24079;51.824;4.682;2023-08-07T10:10:10;21.30;99.90
37998;DHT22;24079;51.824;4.682;2023-08-07T10:12:37;21.40;99.90
37998;DHT22;24079;51.824;4.682;2023-08-07T10:15:04;21.70;99.90
37998;DHT22;24079;51.824;4.682;2023-08-07T10:17:32;22.00;99.90
37998;DHT22;24079;51.824;4.682;2023-08-07T10:19:58;22.00;99.90
37998;DHT22;24079;51.824;4.682;2023-08-07T10:22:26;22.00;99.90
37998;DHT22;24079;51.824;4.682;2023-08-07T10:24:53;21.90;99.90
37998;DHT22;24079;51.824;4.682;2023-08-07T10:27:21;21.60;99.90
37998;DHT22;24079;51.824;4.682;2023-08-07T10:29:50;21.70;99.90
37998;DHT22;24079;51.824;4.682;2023-08-07T10:32:19;21.30;99.90
37998;DHT22;24079;51.824;4.682;2023-08-07T10:34:53;21.60;99.90
37998;DHT22;24079;51.824;4.682;2023-08-07T10:37:32;21.90;99.90
37998;DHT22;24079;51.824;4.682;2023-08-07T10:40:04;22.00;99.90
37998;DHT22;24079;51.824;4.682;2023-08-07T10:42:59;22.10;99.90
37998;DHT22;24079;51.824;4.682;2023-08-07T10:45:27;22.10;99.90
37998;DHT22;24079;51.824;4.682;2023-08-07T10:50:31;21.70;99.90
37998;DHT22;24079;51.824;4.682;2023-08-07T10:53:00;21.80;99.90
37998;DHT22;24079;51.824;4.682;2023-08-07T10:55:26;21.90;99.90
37998;DHT22;24079;51.824;4.682;2023-08-07T10:57:56;22.10;99.90
37998;DHT22;24079;51.824;4.682;2023-08-07T11:00:26;22.00;99.90
37998;DHT22;24079;51.824;4.682;2023-08-07T11:02:53;21.90;99.90
37998;DHT22;24079;51.824;4.682;2023-08-07T11:05:20;21.60;99.90
37998;DHT22;24079;51.824;4.682;2023-08-07T11:07:46;21.40;99.90
37998;DHT22;24079;51.824;4.682;2023-08-07T11:10:14;21.30;99.90
37998;DHT22;24079;51.824;4.682;2023-08-07T11:12:43;21.50;99.90
37998;DHT22;24079;51.824;4.682;2023-08-07T11:15:12;21.60;99.90
37998;DHT22;24079;51.824;4.682;2023-08-07T11:17:39;21.80;99.90
37998;DHT22;24079;51.824;4.682;2023-08-07T11:20:08;22.00;99.90
37998;DHT22;24079;51.824;4.682;2023-08-07T11:22:35;22.30;99.90
37998;DHT22;24079;51.824;4.682;2023-08-07T11:25:01;22.50;99.90
37998;DHT22;24079;51.824;4.682;2023-08-07T11:27:27;22.10;99.90
37998;DHT22;24079;51.824;4.682;2023-08-07T11:29:53;21.80;99.90
37998;DHT22;24079;51.824;4.682;2023-08-07T11:32:21;22.10;99.90
37998;DHT22;24079;51.824;4.682;2023-08-07T11:34:50;22.30;99.90
37998;DHT22;24079;51.824;4.682;2023-08-07T11:37:17;22.50;99.90
37998;DHT22;24079;51.824;4.682;2023-08-07T11:39:44;22.80;99.90
37998;DHT22;24079;51.824;4.682;2023-08-07T11:42:10;22.90;99.90
37998;DHT22;24079;51.824;4.682;2023-08-07T11:44:36;22.80;99.90
37998;DHT22;24079;51.824;4.682;2023-08-07T11:47:02;22.50;99.90
37998;DHT22;24079;51.824;4.682;2023-08-07T11:49:29;22.20;99.90
37998;DHT22;24079;51.824;4.682;2023-08-07T11:51:55;21.70;99.90
37998;DHT22;24079;51.824;4.682;2023-08-07T11:54:22;21.20;99.90
37998;DHT22;24079;51.824;4.682;2023-08-07T11:56:48;20.70;99.90
37998;DHT22;24079;51.824;4.682;2023-08-07T11:59:16;20.60;99.90
37998;DHT22;24079;51.824;4.682;2023-08-07T12:01:45;20.70;99.90
37998;DHT22;24079;51.824;4.682;2023-08-07T12:04:12;20.80;99.90
37998;DHT22;24079;51.824;4.682;2023-08-07T12:06:55;20.70;99.90
37998;DHT22;24079;51.824;4.682;2023-08-07T12:09:21;20.50;99.90
37998;DHT22;24079;51.824;4.682;2023-08-07T12:11:47;20.40;99.90
37998;DHT22;24079;51.824;4.682;2023-08-07T12:14:14;20.30;99.90
37998;DHT22;24079;51.824;4.682;2023-08-07T12:16:44;20.30;99.90
37998;DHT22;24079;51.824;4.682;2023-08-07T12:19:11;20.40;99.90
37998;DHT22;24079;51.824;4.682;2023-08-07T12:21:37;20.50;99.90
37998;DHT22;24079;51.824;4.682;2023-08-07T12:24:07;20.50;99.90
37998;DHT22;24079;51.824;4.682;2023-08-07T12:26:33;20.30;99.90
37998;DHT22;24079;51.824;4.682;2023-08-07T12:28:59;19.80;99.90
37998;DHT22;24079;51.824;4.682;2023-08-07T12:31:25;19.60;99.90
37998;DHT22;24079;51.824;4.682;2023-08-07T12:33:51;19.30;99.90
37998;DHT22;24079;51.824;4.682;2023-08-07T12:36:17;19.20;99.90
37998;DHT22;24079;51.824;4.682;2023-08-07T12:38:44;19.00;99.90
37998;DHT22;24079;51.824;4.682;2023-08-07T12:41:10;18.90;99.90
37998;DHT22;24079;51.824;4.682;2023-08-07T12:43:36;18.80;99.90
37998;DHT22;24079;51.824;4.682;2023-08-07T12:46:02;18.70;99.90
37998;DHT22;24079;51.824;4.682;2023-08-07T12:48:28;18.50;99.90
37998;DHT22;24079;51.824;4.682;2023-08-07T12:50:54;18.30;99.90
37998;DHT22;24079;51.824;4.682;2023-08-07T12:53:20;18.10;99.90
37998;DHT22;24079;51.824;4.682;2023-08-07T12:55:46;17.90;99.90
37998;DHT22;24079;51.824;4.682;2023-08-07T12:58:12;17.70;99.90
37998;DHT22;24079;51.824;4.682;2023-08-07T13:00:38;17.80;99.90
37998;DHT22;24079;51.824;4.682;2023-08-07T13:03:04;17.90;99.90
37998;DHT22;24079;51.824;4.682;2023-08-07T13:05:30;17.90;99.90
37998;DHT22;24079;51.824;4.682;2023-08-07T13:07:57;18.20;99.90
37998;DHT22;24079;51.824;4.682;2023-08-07T13:10:24;18.60;99.90
37998;DHT22;24079;51.824;4.682;2023-08-07T13:12:53;19.00;99.90
37998;DHT22;24079;51.824;4.682;2023-08-07T13:15:20;19.60;99.90
37998;DHT22;24079;51.824;4.682;2023-08-07T13:17:46;20.10;99.90
37998;DHT22;24079;51.824;4.682;2023-08-07T13:20:13;20.30;99.90
37998;DHT22;24079;51.824;4.682;2023-08-07T13:22:41;20.20;99.90
37998;DHT22;24079;51.824;4.682;2023-08-07T13:25:09;20.10;99.90
37998;DHT22;24079;51.824;4.682;2023-08-07T13:27:37;19.80;99.90
37998;DHT22;24079;51.824;4.682;2023-08-07T13:30:04;19.20;99.90
37998;DHT22;24079;51.824;4.682;2023-08-07T13:32:30;18.70;99.90
37998;DHT22;24079;51.824;4.682;2023-08-07T13:34:57;18.70;99.90
37998;DHT22;24079;51.824;4.682;2023-08-07T13:37:24;18.70;99.90
37998;DHT22;24079;51.824;4.682;2023-08-07T13:39:50;18.90;99.90
37998;DHT22;24079;51.824;4.682;2023-08-07T13:42:18;19.40;99.90
37998;DHT22;24079;51.824;4.682;2023-08-07T13:44:45;19.90;99.90
37998;DHT22;24079;51.824;4.682;2023-08-07T13:47:11;20.00;99.90
37998;DHT22;24079;51.824;4.682;2023-08-07T13:49:38;20.00;99.90
37998;DHT22;24079;51.824;4.682;2023-08-07T13:52:05;19.70;99.90
37998;DHT22;24079;51.824;4.682;2023-08-07T13:54:31;19.40;99.90
37998;DHT22;24079;51.824;4.682;2023-08-07T13:56:57;19.80;99.90
37998;DHT22;24079;51.824;4.682;2023-08-07T13:59:23;20.10;99.90
37998;DHT22;24079;51.824;4.682;2023-08-07T14:01:49;20.20;99.90
37998;DHT22;24079;51.824;4.682;2023-08-07T14:04:15;20.10;99.90
37998;DHT22;24079;51.824;4.682;2023-08-07T14:06:42;19.90;99.90
37998;DHT22;24079;51.824;4.682;2023-08-07T14:09:09;19.90;99.90
37998;DHT22;24079;51.824;4.682;2023-08-07T14:11:35;20.10;99.90
37998;DHT22;24079;51.824;4.682;2023-08-07T14:14:02;20.40;99.90
37998;DHT22;24079;51.824;4.682;2023-08-07T14:16:28;20.60;99.90
37998;DHT22;24079;51.824;4.682;2023-08-07T14:18:54;20.40;99.90
37998;DHT22;24079;51.824;4.682;2023-08-07T14:21:20;20.00;99.90
37998;DHT22;24079;51.824;4.682;2023-08-07T14:23:46;19.60;99.90
37998;DHT22;24079;51.824;4.682;2023-08-07T14:26:14;19.70;99.90
37998;DHT22;24079;51.824;4.682;2023-08-07T14:28:40;19.90;99.90
37998;DHT22;24079;51.824;4.682;2023-08-07T14:31:10;20.10;99.90
37998;DHT22;24079;51.824;4.682;2023-08-07T14:33:37;20.10;99.90
37998;DHT22;24079;51.824;4.682;2023-08-07T14:36:03;20.10;99.90
37998;DHT22;24079;51.824;4.682;2023-08-07T14:38:30;20.10;99.90
37998;DHT22;24079;51.824;4.682;2023-08-07T14:40:56;20.30;99.90
37998;DHT22;24079;51.824;4.682;2023-08-07T14:43:27;20.30;99.90
37998;DHT22;24079;51.824;4.682;2023-08-07T14:45:54;20.30;99.90
37998;DHT22;24079;51.824;4.682;2023-08-07T14:48:20;20.30;99.90
37998;DHT22;24079;51.824;4.682;2023-08-07T14:50:47;20.00;99.90
37998;DHT22;24079;51.824;4.682;2023-08-07T14:53:13;20.10;99.90
37998;DHT22;24079;51.824;4.682;2023-08-07T14:55:39;20.30;99.90
37998;DHT22;24079;51.824;4.682;2023-08-07T14:58:05;20.40;99.90
37998;DHT22;24079;51.824;4.682;2023-08-07T15:00:31;20.40;99.90
37998;DHT22;24079;51.824;4.682;2023-08-07T15:02:57;20.30;99.90
37998;DHT22;24079;51.824;4.682;2023-08-07T15:05:28;20.30;99.90
37998;DHT22;24079;51.824;4.682;2023-08-07T15:07:54;20.30;99.90
37998;DHT22;24079;51.824;4.682;2023-08-07T15:10:20;19.90;99.90
37998;DHT22;24079;51.824;4.682;2023-08-07T15:12:48;19.80;99.90
37998;DHT22;24079;51.824;4.682;2023-08-07T15:15:14;20.00;99.90
37998;DHT22;24079;51.824;4.682;2023-08-07T15:17:40;20.20;99.90
37998;DHT22;24079;51.824;4.682;2023-08-07T15:20:07;20.30;99.90
37998;DHT22;24079;51.824;4.682;2023-08-07T15:22:33;20.30;99.90
37998;DHT22;24079;51.824;4.682;2023-08-07T15:24:59;20.30;99.90
37998;DHT22;24079;51.824;4.682;2023-08-07T15:27:25;20.20;99.90
37998;DHT22;24079;51.824;4.682;2023-08-07T15:29:51;20.30;99.90
37998;DHT22;24079;51.824;4.682;2023-08-07T15:32:17;20.20;99.90
37998;DHT22;24079;51.824;4.682;2023-08-07T15:34:45;20.10;99.90
37998;DHT22;24079;51.824;4.682;2023-08-07T15:37:12;20.00;99.90